Time;durP1;ratioP1;P1;durP2;ratioP2;P2;SDS_P1;SDS_P2;PMS_P1;PMS_P2;Temp;Humidity;BMP_temperature;BMP_pressure;BME280_temperature;BME280_humidity;BME280_pressure;Samples;Min_cycle;Max_cycle;Signal;HPM_P1;HPM_P2
2023/08/21 00:00:25;;;;;;;;;;;24.10;63.20;;;;;;5102974;27;19931;-61
2023/08/21 00:02:52;;;;;;;;;;;24.10;63.20;;;;;;5101927;28;19927;-61
2023/08/21 00:05:20;;;;;;;;;;;24.10;63.10;;;;;;5109069;27;20338;-61
2023/08/21 00:07:50;;;;;;;;;;;24.10;63.10;;;;;;5106427;27;19927;-61
2023/08/21 00:10:17;;;;;;;;;;;24.10;63.10;;;;;;5125224;27;19929;-62
2023/08/21 00:12:44;;;;;;;;;;;24.10;63.10;;;;;;5099028;27;19924;-60
2023/08/21 00:15:10;;;;;;;;;;;24.10;63.10;;;;;;5103552;28;19924;-62
2023/08/21 00:17:37;;;;;;;;;;;24.10;63.10;;;;;;5105782;27;19933;-61
2023/08/21 00:20:04;;;;;;;;;;;24.10;63.10;;;;;;5125753;27;19969;-60
2023/08/21 00:22:32;;;;;;;;;;;24.10;63.00;;;;;;5109941;28;19929;-62
2023/08/21 00:24:59;;;;;;;;;;;24.10;63.00;;;;;;5093160;27;19924;-61
2023/08/21 00:27:26;;;;;;;;;;;24.10;63.00;;;;;;5124334;27;19973;-61
2023/08/21 00:29:53;;;;;;;;;;;24.10;63.00;;;;;;5103108;27;19924;-60
2023/08/21 00:32:20;;;;;;;;;;;24.10;63.00;;;;;;5121301;27;19930;-61
2023/08/21 00:34:46;;;;;;;;;;;24.10;62.90;;;;;;5103717;27;19927;-61
2023/08/21 00:37:13;;;;;;;;;;;24.10;62.90;;;;;;5106945;27;19947;-61
2023/08/21 00:39:41;;;;;;;;;;;24.10;62.90;;;;;;5122102;27;19929;-61
2023/08/21 00:42:08;;;;;;;;;;;24.10;62.80;;;;;;5122243;27;19984;-62
2023/08/21 00:44:35;;;;;;;;;;;24.10;62.80;;;;;;5101636;27;20338;-61
2023/08/21 00:47:01;;;;;;;;;;;24.10;62.80;;;;;;5104899;28;20051;-62
2023/08/21 00:49:28;;;;;;;;;;;24.10;62.80;;;;;;5122501;27;19987;-61
2023/08/21 00:51:55;;;;;;;;;;;24.10;62.70;;;;;;5094020;27;19923;-62
2023/08/21 00:54:22;;;;;;;;;;;24.10;62.70;;;;;;5108189;28;19988;-61
2023/08/21 00:56:52;;;;;;;;;;;24.10;63.00;;;;;;5101851;27;19928;-60
2023/08/21 00:59:18;;;;;;;;;;;24.10;62.60;;;;;;5097880;27;19928;-61
2023/08/21 01:01:47;;;;;;;;;;;24.10;62.60;;;;;;5125180;27;19943;-61
2023/08/21 01:04:14;;;;;;;;;;;24.10;62.60;;;;;;5107384;27;19923;-61
2023/08/21 01:06:40;;;;;;;;;;;24.10;62.60;;;;;;5116845;27;19931;-62
2023/08/21 01:09:09;;;;;;;;;;;24.10;62.60;;;;;;5098562;28;19927;-61
2023/08/21 01:11:37;;;;;;;;;;;24.10;62.50;;;;;;5098608;27;19932;-61
2023/08/21 01:14:08;;;;;;;;;;;24.10;62.50;;;;;;5103635;27;19980;-61
2023/08/21 01:16:35;;;;;;;;;;;24.10;62.50;;;;;;5101096;28;19931;-60
2023/08/21 01:19:01;;;;;;;;;;;24.00;62.30;;;;;;5098355;28;19928;-61
2023/08/21 01:21:28;;;;;;;;;;;24.10;62.30;;;;;;5093632;27;19931;-62
2023/08/21 01:23:56;;;;;;;;;;;24.00;62.30;;;;;;5121607;27;19989;-62
2023/08/21 01:26:23;;;;;;;;;;;24.00;62.20;;;;;;5115910;27;19923;-61
2023/08/21 01:28:50;;;;;;;;;;;24.00;62.20;;;;;;5101211;27;19996;-61
2023/08/21 01:31:17;;;;;;;;;;;24.00;62.20;;;;;;5092104;28;19935;-61
2023/08/21 01:33:46;;;;;;;;;;;24.00;62.20;;;;;;5100565;28;20429;-60
2023/08/21 01:36:12;;;;;;;;;;;24.00;62.20;;;;;;5121163;27;19923;-62
2023/08/21 01:38:39;;;;;;;;;;;24.00;62.20;;;;;;5109825;27;19924;-61
2023/08/21 01:41:07;;;;;;;;;;;24.00;62.10;;;;;;5105174;27;19927;-62
2023/08/21 01:43:34;;;;;;;;;;;24.00;62.10;;;;;;5098267;28;19924;-62
2023/08/21 01:46:02;;;;;;;;;;;24.00;62.10;;;;;;5105720;27;19955;-60
2023/08/21 01:48:28;;;;;;;;;;;24.00;62.00;;;;;;5089188;28;20011;-61
2023/08/21 01:50:55;;;;;;;;;;;24.00;62.00;;;;;;5115548;27;19924;-60
2023/08/21 01:53:22;;;;;;;;;;;24.00;62.00;;;;;;5097135;28;19931;-61
2023/08/21 01:55:48;;;;;;;;;;;24.00;62.70;;;;;;5100574;28;19928;-60
2023/08/21 01:58:16;;;;;;;;;;;24.00;61.90;;;;;;5107517;28;19963;-61
2023/08/21 02:00:46;;;;;;;;;;;24.00;61.90;;;;;;5111172;27;19924;-60
2023/08/21 02:03:13;;;;;;;;;;;24.00;61.90;;;;;;5107772;28;19927;-61
2023/08/21 02:05:40;;;;;;;;;;;24.00;61.90;;;;;;5115834;28;19936;-60
2023/08/21 02:08:07;;;;;;;;;;;24.00;61.90;;;;;;5121212;27;19924;-62
2023/08/21 02:10:33;;;;;;;;;;;24.00;61.80;;;;;;5101026;28;19924;-61
2023/08/21 02:13:00;;;;;;;;;;;24.00;61.80;;;;;;5102623;28;19923;-62
2023/08/21 02:15:28;;;;;;;;;;;24.00;61.90;;;;;;5113122;28;19927;-61
2023/08/21 02:17:55;;;;;;;;;;;23.90;61.70;;;;;;5124256;28;19931;-62
2023/08/21 02:20:22;;;;;;;;;;;24.00;61.80;;;;;;5098078;28;19956;-61
2023/08/21 02:22:48;;;;;;;;;;;23.90;61.60;;;;;;5102212;28;19924;-60
2023/08/21 02:25:15;;;;;;;;;;;23.90;61.60;;;;;;5108338;28;20064;-62
2023/08/21 02:27:42;;;;;;;;;;;23.90;61.60;;;;;;5115848;27;20292;-61
2023/08/21 02:30:09;;;;;;;;;;;23.90;61.60;;;;;;5104667;28;19928;-60
2023/08/21 02:32:38;;;;;;;;;;;24.00;61.70;;;;;;5106691;27;19930;-60
2023/08/21 02:35:05;;;;;;;;;;;23.90;61.60;;;;;;5117729;27;19923;-61
2023/08/21 02:37:32;;;;;;;;;;;24.00;61.70;;;;;;5104922;27;19927;-61
2023/08/21 02:39:59;;;;;;;;;;;23.90;61.60;;;;;;5106283;28;19965;-61
2023/08/21 02:42:26;;;;;;;;;;;23.90;61.60;;;;;;5132485;27;19924;-60
2023/08/21 02:44:53;;;;;;;;;;;23.90;61.60;;;;;;5105632;27;19934;-61
2023/08/21 02:47:19;;;;;;;;;;;23.90;61.60;;;;;;5109176;28;19932;-61
2023/08/21 02:49:47;;;;;;;;;;;23.90;61.60;;;;;;5100372;27;19924;-61
2023/08/21 02:52:14;;;;;;;;;;;23.90;61.60;;;;;;5111831;28;19969;-60
2023/08/21 02:54:41;;;;;;;;;;;23.90;61.60;;;;;;5108844;27;19927;-61
2023/08/21 02:57:08;;;;;;;;;;;23.90;61.50;;;;;;5109368;28;19964;-60
2023/08/21 02:59:35;;;;;;;;;;;23.90;61.50;;;;;;5113047;27;19923;-61
2023/08/21 03:02:02;;;;;;;;;;;23.90;61.50;;;;;;5100781;27;19992;-62
2023/08/21 03:04:28;;;;;;;;;;;23.90;61.50;;;;;;5129543;27;19927;-61
2023/08/21 03:06:58;;;;;;;;;;;23.90;61.50;;;;;;5124239;27;20489;-61
2023/08/21 03:09:25;;;;;;;;;;;23.90;61.50;;;;;;5114630;27;20006;-61
2023/08/21 03:11:52;;;;;;;;;;;23.90;61.50;;;;;;5108073;27;19930;-62
2023/08/21 03:14:18;;;;;;;;;;;23.90;61.50;;;;;;5127410;27;20310;-62
2023/08/21 03:16:45;;;;;;;;;;;23.90;61.50;;;;;;5108406;27;19931;-61
2023/08/21 03:19:12;;;;;;;;;;;23.90;61.50;;;;;;5117287;27;19930;-61
2023/08/21 03:21:39;;;;;;;;;;;23.90;61.40;;;;;;5116301;27;19939;-61
2023/08/21 03:24:07;;;;;;;;;;;23.90;61.50;;;;;;5100039;27;19947;-61
2023/08/21 03:26:34;;;;;;;;;;;23.80;61.30;;;;;;5120953;27;19927;-61
2023/08/21 03:29:00;;;;;;;;;;;23.90;61.30;;;;;;5112863;27;19923;-61
2023/08/21 03:31:27;;;;;;;;;;;23.80;61.30;;;;;;5108860;28;19924;-61
2023/08/21 03:33:54;;;;;;;;;;;23.80;61.30;;;;;;5088181;28;20586;-61
2023/08/21 03:36:21;;;;;;;;;;;23.80;61.30;;;;;;5128416;27;19923;-61
2023/08/21 03:38:47;;;;;;;;;;;23.80;61.30;;;;;;5125516;27;19927;-61
2023/08/21 03:41:15;;;;;;;;;;;23.80;61.30;;;;;;5107448;28;19930;-61
2023/08/21 03:43:42;;;;;;;;;;;23.80;61.20;;;;;;5099252;28;19969;-61
2023/08/21 03:46:09;;;;;;;;;;;23.90;61.40;;;;;;5107247;27;19931;-61
2023/08/21 03:48:36;;;;;;;;;;;23.80;61.20;;;;;;5114094;27;20319;-61
2023/08/21 03:51:02;;;;;;;;;;;23.80;61.20;;;;;;5108550;27;19979;-61
2023/08/21 03:53:29;;;;;;;;;;;23.80;61.20;;;;;;5106063;27;19927;-61
2023/08/21 03:55:56;;;;;;;;;;;23.80;61.20;;;;;;5098426;27;19931;-61
2023/08/21 03:58:25;;;;;;;;;;;23.90;61.20;;;;;;5114327;27;19939;-60
2023/08/21 04:00:52;;;;;;;;;;;23.80;61.10;;;;;;5095592;27;19959;-61
2023/08/21 04:03:18;;;;;;;;;;;23.80;61.10;;;;;;5121335;27;19923;-61
2023/08/21 04:05:45;;;;;;;;;;;23.80;61.20;;;;;;5105711;27;20521;-60
2023/08/21 04:08:12;;;;;;;;;;;23.80;61.10;;;;;;5109651;28;19931;-61
2023/08/21 04:10:39;;;;;;;;;;;23.80;61.00;;;;;;5104750;27;19931;-61
2023/08/21 04:13:05;;;;;;;;;;;23.80;61.00;;;;;;5104430;28;19969;-61
2023/08/21 04:15:34;;;;;;;;;;;23.80;61.00;;;;;;5097385;27;20392;-61
2023/08/21 04:18:01;;;;;;;;;;;23.80;61.00;;;;;;5102756;28;19971;-62
2023/08/21 04:20:28;;;;;;;;;;;23.80;61.00;;;;;;5104131;28;19924;-61
2023/08/21 04:22:55;;;;;;;;;;;23.80;61.00;;;;;;5134051;27;19927;-60
2023/08/21 04:25:21;;;;;;;;;;;23.80;61.00;;;;;;5105667;27;20414;-61
2023/08/21 04:27:48;;;;;;;;;;;23.80;61.00;;;;;;5106095;27;19935;-61
2023/08/21 04:30:15;;;;;;;;;;;23.80;61.00;;;;;;5106190;27;19931;-59
2023/08/21 04:32:43;;;;;;;;;;;23.80;61.00;;;;;;5091434;27;19924;-61
2023/08/21 04:35:10;;;;;;;;;;;23.80;61.00;;;;;;5124721;27;19927;-61
2023/08/21 04:37:38;;;;;;;;;;;23.80;60.90;;;;;;5080132;27;19924;-61
2023/08/21 04:40:05;;;;;;;;;;;23.80;60.90;;;;;;5128465;27;19924;-61
2023/08/21 04:42:32;;;;;;;;;;;23.80;60.90;;;;;;5112469;27;19923;-61
2023/08/21 04:44:59;;;;;;;;;;;23.80;60.90;;;;;;5095520;28;19919;-61
2023/08/21 04:47:26;;;;;;;;;;;23.80;60.90;;;;;;5121382;27;19924;-61
2023/08/21 04:49:54;;;;;;;;;;;23.80;60.90;;;;;;5118934;27;20428;-61
2023/08/21 04:52:21;;;;;;;;;;;23.80;60.90;;;;;;5128655;27;19934;-61
2023/08/21 04:54:48;;;;;;;;;;;23.80;60.90;;;;;;5098639;27;19924;-62
2023/08/21 04:57:14;;;;;;;;;;;23.80;60.90;;;;;;5102328;28;19923;-61
2023/08/21 04:59:41;;;;;;;;;;;23.80;60.90;;;;;;5093750;28;19924;-60
2023/08/21 05:02:08;;;;;;;;;;;23.80;60.90;;;;;;5113080;27;19919;-60
2023/08/21 05:04:34;;;;;;;;;;;23.80;60.90;;;;;;5103496;28;19945;-61
2023/08/21 05:07:03;;;;;;;;;;;23.80;60.90;;;;;;5109386;27;20071;-61
2023/08/21 05:09:29;;;;;;;;;;;23.80;60.90;;;;;;5099689;28;19924;-61
2023/08/21 05:11:56;;;;;;;;;;;23.80;60.90;;;;;;5114098;27;19927;-61
2023/08/21 05:14:23;;;;;;;;;;;23.80;60.90;;;;;;5096957;28;19965;-61
2023/08/21 05:16:50;;;;;;;;;;;23.80;60.90;;;;;;5096620;27;19924;-60
2023/08/21 05:19:16;;;;;;;;;;;23.80;60.90;;;;;;5101293;27;20290;-61
2023/08/21 05:21:44;;;;;;;;;;;23.70;60.80;;;;;;5111478;27;19931;-60
2023/08/21 05:24:12;;;;;;;;;;;23.80;60.90;;;;;;5108650;28;19923;-61
2023/08/21 05:26:39;;;;;;;;;;;23.70;60.80;;;;;;5076180;27;19928;-61
2023/08/21 05:29:06;;;;;;;;;;;23.80;60.90;;;;;;5100754;28;20543;-61
2023/08/21 05:31:33;;;;;;;;;;;23.80;60.90;;;;;;5095739;28;19984;-61
2023/08/21 05:33:59;;;;;;;;;;;23.70;60.90;;;;;;5117875;27;19924;-61
2023/08/21 05:36:26;;;;;;;;;;;23.70;60.90;;;;;;5095476;28;19924;-61
2023/08/21 05:38:53;;;;;;;;;;;23.80;61.00;;;;;;5114243;27;19973;-61
2023/08/21 05:41:21;;;;;;;;;;;23.80;61.00;;;;;;5097350;28;19973;-61
2023/08/21 05:43:48;;;;;;;;;;;23.80;61.00;;;;;;5097050;28;19924;-60
2023/08/21 05:46:15;;;;;;;;;;;23.80;61.10;;;;;;5093958;28;19924;-61
2023/08/21 05:48:42;;;;;;;;;;;23.80;61.10;;;;;;5099682;28;19969;-60
2023/08/21 05:51:09;;;;;;;;;;;23.80;61.10;;;;;;5097245;28;19923;-61
2023/08/21 05:53:36;;;;;;;;;;;23.70;61.10;;;;;;5096408;28;19950;-61
2023/08/21 05:56:02;;;;;;;;;;;23.70;61.10;;;;;;5090014;28;19924;-60
2023/08/21 05:58:32;;;;;;;;;;;23.80;61.20;;;;;;5090491;28;19924;-61
2023/08/21 06:00:59;;;;;;;;;;;23.80;61.20;;;;;;5094851;28;19927;-61
2023/08/21 06:03:26;;;;;;;;;;;23.80;61.30;;;;;;5114888;28;19935;-61
2023/08/21 06:05:53;;;;;;;;;;;23.80;61.30;;;;;;5095430;28;19968;-60
2023/08/21 06:08:19;;;;;;;;;;;23.80;61.30;;;;;;5111366;28;19969;-60
2023/08/21 06:10:46;;;;;;;;;;;23.80;61.30;;;;;;5096520;28;19928;-61
2023/08/21 06:13:13;;;;;;;;;;;23.80;61.30;;;;;;5094751;28;19928;-62
2023/08/21 06:15:41;;;;;;;;;;;23.80;61.30;;;;;;5097262;28;19924;-61
2023/08/21 06:18:08;;;;;;;;;;;23.80;61.30;;;;;;5111406;28;19928;-61
2023/08/21 06:20:35;;;;;;;;;;;23.80;61.40;;;;;;5092979;28;19924;-60
2023/08/21 06:23:02;;;;;;;;;;;23.80;61.40;;;;;;5093381;28;19938;-61
2023/08/21 06:25:30;;;;;;;;;;;23.80;61.50;;;;;;5092960;28;19932;-60
2023/08/21 06:27:57;;;;;;;;;;;23.80;61.50;;;;;;5094643;28;19923;-61
2023/08/21 06:30:24;;;;;;;;;;;23.80;61.50;;;;;;5106156;28;19924;-61
2023/08/21 06:32:52;;;;;;;;;;;23.80;61.50;;;;;;5092265;28;19946;-61
2023/08/21 06:35:19;;;;;;;;;;;23.80;61.60;;;;;;5101229;28;19924;-60
2023/08/21 06:37:45;;;;;;;;;;;23.80;61.60;;;;;;5095480;28;19923;-60
2023/08/21 06:40:12;;;;;;;;;;;23.80;61.60;;;;;;5114236;28;20662;-61
2023/08/21 06:42:39;;;;;;;;;;;23.80;61.60;;;;;;5091995;28;19928;-60
2023/08/21 06:45:06;;;;;;;;;;;23.80;61.60;;;;;;5095437;28;20416;-60
2023/08/21 06:47:33;;;;;;;;;;;23.80;61.60;;;;;;5112960;28;19931;-60
2023/08/21 06:50:01;;;;;;;;;;;23.70;61.70;;;;;;5101016;28;19976;-61
2023/08/21 06:52:28;;;;;;;;;;;23.70;61.60;;;;;;5097252;28;19928;-61
2023/08/21 06:54:55;;;;;;;;;;;23.70;61.60;;;;;;5100233;28;19923;-61
2023/08/21 06:57:22;;;;;;;;;;;23.70;61.60;;;;;;5090691;28;19937;-61
2023/08/21 06:59:48;;;;;;;;;;;23.70;61.60;;;;;;5104770;28;19931;-61
2023/08/21 07:02:15;;;;;;;;;;;23.70;61.70;;;;;;5087361;28;19924;-62
2023/08/21 07:04:42;;;;;;;;;;;23.70;61.70;;;;;;5111700;27;19924;-60
2023/08/21 07:07:10;;;;;;;;;;;23.60;61.70;;;;;;5103183;27;20658;-61
2023/08/21 07:09:37;;;;;;;;;;;23.60;61.70;;;;;;5070064;28;19936;-61
2023/08/21 07:12:04;;;;;;;;;;;23.60;61.80;;;;;;5071142;28;19931;-63
2023/08/21 07:14:31;;;;;;;;;;;23.60;61.70;;;;;;5071487;28;19940;-60
2023/08/21 07:16:58;;;;;;;;;;;23.60;61.60;;;;;;5079718;27;19924;-59
2023/08/21 07:19:24;;;;;;;;;;;23.60;61.60;;;;;;5078622;27;19928;-61
2023/08/21 07:21:51;;;;;;;;;;;23.60;61.60;;;;;;5088539;28;20258;-60
2023/08/21 07:24:19;;;;;;;;;;;23.60;61.50;;;;;;5099402;27;19928;-60
2023/08/21 07:26:46;;;;;;;;;;;23.60;61.50;;;;;;5087443;28;19930;-61
2023/08/21 07:29:13;;;;;;;;;;;23.60;61.60;;;;;;5079303;28;20338;-62
2023/08/21 07:31:40;;;;;;;;;;;23.60;61.60;;;;;;5093677;27;19928;-62
2023/08/21 07:34:06;;;;;;;;;;;23.60;61.40;;;;;;5084035;28;19977;-63
2023/08/21 07:36:33;;;;;;;;;;;23.50;61.30;;;;;;5098141;27;19932;-61
2023/08/21 07:39:00;;;;;;;;;;;23.50;61.20;;;;;;5099164;28;19973;-63
2023/08/21 07:41:28;;;;;;;;;;;23.50;61.20;;;;;;5092080;28;19939;-62
2023/08/21 07:43:56;;;;;;;;;;;23.50;61.20;;;;;;5103716;28;19954;-63
2023/08/21 07:46:23;;;;;;;;;;;23.50;61.20;;;;;;5098126;28;19931;-62
2023/08/21 07:48:50;;;;;;;;;;;23.50;61.30;;;;;;5097723;27;19931;-65
2023/08/21 07:51:17;;;;;;;;;;;23.50;61.40;;;;;;5111868;27;19989;-65
2023/08/21 07:53:44;;;;;;;;;;;23.50;61.50;;;;;;5091077;28;19924;-64
2023/08/21 07:56:11;;;;;;;;;;;23.40;61.50;;;;;;5090460;28;19923;-61
2023/08/21 07:58:39;;;;;;;;;;;23.40;61.60;;;;;;5093025;28;19923;-61
2023/08/21 08:01:06;;;;;;;;;;;23.50;61.80;;;;;;5110999;27;19931;-63
2023/08/21 08:03:33;;;;;;;;;;;23.40;61.60;;;;;;5123355;27;19927;-63
2023/08/21 08:06:00;;;;;;;;;;;23.40;61.50;;;;;;5095868;28;19951;-62
2023/08/21 08:08:26;;;;;;;;;;;23.40;61.50;;;;;;5088118;28;19973;-63
2023/08/21 08:10:53;;;;;;;;;;;23.40;61.60;;;;;;5097780;27;19928;-64
2023/08/21 08:13:20;;;;;;;;;;;23.40;61.70;;;;;;5103900;28;19924;-63
2023/08/21 08:15:48;;;;;;;;;;;23.40;61.50;;;;;;5100262;27;19968;-60
2023/08/21 08:18:15;;;;;;;;;;;23.40;61.30;;;;;;5098800;28;20300;-63
2023/08/21 08:20:42;;;;;;;;;;;23.40;61.30;;;;;;5102514;28;19928;-63
2023/08/21 08:23:09;;;;;;;;;;;23.40;61.50;;;;;;5090599;28;19938;-64
2023/08/21 08:25:35;;;;;;;;;;;23.40;61.30;;;;;;5097523;27;19928;-63
2023/08/21 08:28:02;;;;;;;;;;;23.40;61.10;;;;;;5101525;27;19956;-63
2023/08/21 08:30:29;;;;;;;;;;;23.40;60.90;;;;;;5105606;28;19973;-63
2023/08/21 08:32:57;;;;;;;;;;;23.40;60.80;;;;;;5095581;27;19923;-63
2023/08/21 08:35:24;;;;;;;;;;;23.40;60.80;;;;;;5096193;28;20269;-62
2023/08/21 08:37:50;;;;;;;;;;;23.40;60.80;;;;;;5095721;28;19932;-62
2023/08/21 08:40:16;;;;;;;;;;;23.30;60.60;;;;;;5091415;28;19942;-63
2023/08/21 08:42:43;;;;;;;;;;;23.30;60.60;;;;;;5094857;27;19924;-63
2023/08/21 08:45:10;;;;;;;;;;;23.40;60.60;;;;;;5100211;27;20510;-63
2023/08/21 08:47:37;;;;;;;;;;;23.40;60.40;;;;;;5094266;27;19984;-62
2023/08/21 08:50:05;;;;;;;;;;;23.40;60.30;;;;;;5099387;28;19989;-60
2023/08/21 08:52:34;;;;;;;;;;;23.30;60.20;;;;;;5112247;27;20242;-62
2023/08/21 08:55:02;;;;;;;;;;;23.30;60.00;;;;;;5087066;28;20040;-61
2023/08/21 08:57:28;;;;;;;;;;;23.30;60.00;;;;;;5097209;27;19964;-61
2023/08/21 08:59:55;;;;;;;;;;;23.30;59.80;;;;;;5094246;28;19924;-62
2023/08/21 09:02:22;;;;;;;;;;;23.30;59.70;;;;;;5113620;27;19930;-62
2023/08/21 09:04:49;;;;;;;;;;;23.30;59.60;;;;;;5093019;27;19928;-61
2023/08/21 09:07:17;;;;;;;;;;;23.30;59.30;;;;;;5092172;28;19928;-61
2023/08/21 09:09:46;;;;;;;;;;;23.30;59.10;;;;;;5092202;28;19935;-61
2023/08/21 09:12:13;;;;;;;;;;;23.30;59.00;;;;;;5093660;28;19927;-60
2023/08/21 09:14:40;;;;;;;;;;;23.30;59.10;;;;;;5121504;27;19928;-60
2023/08/21 09:17:06;;;;;;;;;;;23.30;59.30;;;;;;5108260;28;19924;-60
2023/08/21 09:19:33;;;;;;;;;;;23.30;59.20;;;;;;5093552;28;19931;-62
2023/08/21 09:22:00;;;;;;;;;;;23.30;59.10;;;;;;5088241;28;19978;-61
2023/08/21 09:24:28;;;;;;;;;;;23.30;59.10;;;;;;5095841;27;19992;-64
2023/08/21 09:26:56;;;;;;;;;;;23.30;59.00;;;;;;5088126;27;19984;-62
2023/08/21 09:29:23;;;;;;;;;;;23.30;59.00;;;;;;5112767;27;19924;-60
2023/08/21 09:31:50;;;;;;;;;;;23.30;59.10;;;;;;5090273;28;20278;-61
2023/08/21 09:34:17;;;;;;;;;;;23.30;59.20;;;;;;5092682;28;19932;-61
2023/08/21 09:36:43;;;;;;;;;;;23.30;59.20;;;;;;5122571;27;19928;-61
2023/08/21 09:39:12;;;;;;;;;;;23.40;59.20;;;;;;5089592;28;19935;-62
2023/08/21 09:41:40;;;;;;;;;;;23.40;59.20;;;;;;5091850;27;19977;-62
2023/08/21 09:44:07;;;;;;;;;;;23.40;59.20;;;;;;5108059;28;19932;-61
2023/08/21 09:46:34;;;;;;;;;;;23.40;59.20;;;;;;5090615;28;19935;-59
2023/08/21 09:49:02;;;;;;;;;;;23.40;59.30;;;;;;5097800;28;19932;-59
2023/08/21 09:51:29;;;;;;;;;;;23.40;59.30;;;;;;5106124;28;20245;-61
2023/08/21 09:53:56;;;;;;;;;;;23.40;59.30;;;;;;5109891;27;19939;-59
2023/08/21 09:56:23;;;;;;;;;;;23.40;59.40;;;;;;5095902;28;19934;-59
2023/08/21 09:58:51;;;;;;;;;;;23.40;59.50;;;;;;5119469;27;19931;-59
2023/08/21 10:01:18;;;;;;;;;;;23.40;59.40;;;;;;5087753;28;19928;-60
2023/08/21 10:03:47;;;;;;;;;;;23.40;59.40;;;;;;5093205;28;19931;-61
2023/08/21 10:06:15;;;;;;;;;;;23.50;60.00;;;;;;5091812;28;20533;-62
2023/08/21 10:08:42;;;;;;;;;;;23.50;59.40;;;;;;5089217;28;19924;-60
2023/08/21 10:11:09;;;;;;;;;;;23.50;59.30;;;;;;5089949;28;19923;-60
2023/08/21 10:13:37;;;;;;;;;;;23.40;59.20;;;;;;5091330;28;20339;-61
2023/08/21 10:16:06;;;;;;;;;;;23.40;59.10;;;;;;5090944;28;19969;-61
2023/08/21 10:18:33;;;;;;;;;;;23.50;58.60;;;;;;5108880;28;20149;-61
2023/08/21 10:21:11;;;;;;;;;;;23.50;59.00;;;;;;5101372;28;19978;-61
2023/08/21 10:23:37;;;;;;;;;;;23.50;58.60;;;;;;5095810;28;19969;-61
2023/08/21 10:26:06;;;;;;;;;;;23.50;58.70;;;;;;5110081;28;19927;-61
2023/08/21 10:28:43;;;;;;;;;;;23.50;58.70;;;;;;5099771;28;19940;-62
2023/08/21 10:31:29;;;;;;;;;;;23.50;58.70;;;;;;5095213;28;20006;-61
2023/08/21 10:33:57;;;;;;;;;;;23.50;58.30;;;;;;5112143;28;19928;-59
2023/08/21 10:36:37;;;;;;;;;;;23.50;58.40;;;;;;5094452;28;19998;-60
2023/08/21 10:39:05;;;;;;;;;;;23.60;58.30;;;;;;5113713;28;20422;-60
2023/08/21 10:41:32;;;;;;;;;;;23.60;58.40;;;;;;5114327;28;19971;-59
2023/08/21 10:44:00;;;;;;;;;;;23.60;58.40;;;;;;5106556;27;20384;-60
2023/08/21 10:46:27;;;;;;;;;;;23.60;58.30;;;;;;5126692;27;19928;-60
2023/08/21 10:48:53;;;;;;;;;;;23.60;58.30;;;;;;5127301;27;19974;-60
2023/08/21 10:51:22;;;;;;;;;;;23.60;58.30;;;;;;5099321;28;20465;-60
2023/08/21 10:53:49;;;;;;;;;;;23.60;58.20;;;;;;5110084;27;19924;-60
2023/08/21 10:56:15;;;;;;;;;;;23.60;58.00;;;;;;5087183;28;19968;-61
2023/08/21 10:58:42;;;;;;;;;;;23.60;57.90;;;;;;5116655;27;19927;-61
2023/08/21 11:01:09;;;;;;;;;;;23.70;58.00;;;;;;5118167;27;19927;-61
2023/08/21 11:03:39;;;;;;;;;;;23.60;57.90;;;;;;5098204;27;20056;-61
2023/08/21 11:06:06;;;;;;;;;;;23.70;58.00;;;;;;5090267;28;20545;-62
2023/08/21 11:08:34;;;;;;;;;;;23.70;57.90;;;;;;5088574;27;19928;-62
2023/08/21 11:11:01;;;;;;;;;;;23.70;57.90;;;;;;5114788;27;19923;-65
2023/08/21 11:13:27;;;;;;;;;;;23.70;57.70;;;;;;5090714;28;19924;-65
2023/08/21 11:16:00;;;;;;;;;;;23.70;57.40;;;;;;5104812;27;19996;-66
2023/08/21 11:18:31;;;;;;;;;;;23.70;57.00;;;;;;5094134;28;19919;-65
2023/08/21 11:21:04;;;;;;;;;;;23.70;57.00;;;;;;5088584;27;19923;-64
2023/08/21 11:23:34;;;;;;;;;;;23.70;57.10;;;;;;5102497;27;19927;-65
2023/08/21 11:26:01;;;;;;;;;;;23.70;56.80;;;;;;5088408;28;19924;-65
2023/08/21 11:28:28;;;;;;;;;;;23.70;56.10;;;;;;5114408;27;19932;-64
2023/08/21 11:30:55;;;;;;;;;;;23.70;56.40;;;;;;5086076;27;20443;-63
2023/08/21 11:33:22;;;;;;;;;;;23.70;57.20;;;;;;5125631;27;20316;-64
2023/08/21 11:35:48;;;;;;;;;;;23.70;57.20;;;;;;5093046;28;19977;-61
2023/08/21 11:38:16;;;;;;;;;;;23.70;57.20;;;;;;5093980;28;20239;-66
2023/08/21 11:40:44;;;;;;;;;;;23.70;56.70;;;;;;5104201;28;19964;-62
2023/08/21 11:43:11;;;;;;;;;;;23.70;56.80;;;;;;5110966;27;19927;-66
2023/08/21 11:45:37;;;;;;;;;;;23.70;57.00;;;;;;5093581;27;19958;-66
2023/08/21 11:48:04;;;;;;;;;;;23.70;56.70;;;;;;5105751;28;19930;-66
2023/08/21 11:50:31;;;;;;;;;;;23.70;56.70;;;;;;5094456;27;19928;-67
2023/08/21 11:52:58;;;;;;;;;;;23.70;56.40;;;;;;5094712;27;20429;-60
2023/08/21 11:55:25;;;;;;;;;;;23.70;56.00;;;;;;5107410;27;19976;-61
2023/08/21 11:57:53;;;;;;;;;;;23.70;56.20;;;;;;5120329;27;19928;-61
2023/08/21 12:00:22;;;;;;;;;;;23.70;56.50;;;;;;5109250;27;20050;-62
2023/08/21 12:02:56;;;;;;;;;;;23.70;56.70;;;;;;5106721;27;19924;-60
2023/08/21 12:05:22;;;;;;;;;;;23.80;56.80;;;;;;5108397;27;19966;-60
2023/08/21 12:07:49;;;;;;;;;;;23.80;56.90;;;;;;5113673;27;20384;-60
2023/08/21 12:10:22;;;;;;;;;;;23.80;57.00;;;;;;5106802;28;19924;-60
2023/08/21 12:12:49;;;;;;;;;;;23.80;57.00;;;;;;5103023;27;20045;-61
2023/08/21 12:15:17;;;;;;;;;;;23.90;57.00;;;;;;5103628;27;19923;-61
2023/08/21 12:17:44;;;;;;;;;;;23.90;56.90;;;;;;5087033;27;19928;-62
2023/08/21 12:20:11;;;;;;;;;;;23.90;57.00;;;;;;5105595;28;19924;-61
2023/08/21 12:22:38;;;;;;;;;;;23.90;57.00;;;;;;5103519;27;19924;-61
2023/08/21 12:25:08;;;;;;;;;;;23.90;57.00;;;;;;5097187;28;20286;-61
2023/08/21 12:27:35;;;;;;;;;;;23.90;57.00;;;;;;5108504;28;19924;-64
2023/08/21 12:30:02;;;;;;;;;;;23.90;56.90;;;;;;5116489;27;19932;-67
2023/08/21 12:32:30;;;;;;;;;;;23.90;56.30;;;;;;5091610;28;19984;-66
2023/08/21 12:34:57;;;;;;;;;;;23.90;55.80;;;;;;5114089;27;20257;-66
2023/08/21 12:37:24;;;;;;;;;;;23.90;55.50;;;;;;5095422;28;19923;-65
2023/08/21 12:39:50;;;;;;;;;;;24.00;55.00;;;;;;5119431;27;19976;-64
2023/08/21 12:42:17;;;;;;;;;;;24.00;54.20;;;;;;5098886;27;19972;-64
2023/08/21 12:44:44;;;;;;;;;;;23.90;54.40;;;;;;5101866;28;19931;-65
2023/08/21 12:47:11;;;;;;;;;;;23.90;54.20;;;;;;5116280;27;19931;-66
2023/08/21 12:49:38;;;;;;;;;;;23.90;54.00;;;;;;5089265;28;19928;-66
2023/08/21 12:52:05;;;;;;;;;;;23.90;53.80;;;;;;5117127;27;19951;-67
2023/08/21 12:54:32;;;;;;;;;;;23.90;54.10;;;;;;5092623;27;19960;-65
2023/08/21 12:56:59;;;;;;;;;;;23.90;53.80;;;;;;5093097;28;19924;-64
2023/08/21 12:59:25;;;;;;;;;;;23.90;53.50;;;;;;5112101;27;19924;-67
2023/08/21 13:01:52;;;;;;;;;;;24.00;53.20;;;;;;5096775;27;19927;-64
2023/08/21 13:04:19;;;;;;;;;;;23.90;52.50;;;;;;5090444;28;19927;-62
2023/08/21 13:06:47;;;;;;;;;;;23.90;52.80;;;;;;5092915;27;19974;-66
2023/08/21 13:09:14;;;;;;;;;;;23.90;53.30;;;;;;5119515;27;19934;-64
2023/08/21 13:11:40;;;;;;;;;;;24.00;53.70;;;;;;5091740;27;19950;-65
2023/08/21 13:14:07;;;;;;;;;;;24.00;53.90;;;;;;5090018;28;19932;-61
2023/08/21 13:16:34;;;;;;;;;;;24.00;53.50;;;;;;5108241;27;19931;-62
2023/08/21 13:19:01;;;;;;;;;;;24.10;52.70;;;;;;5118188;27;19975;-64
2023/08/21 13:21:28;;;;;;;;;;;24.10;53.00;;;;;;5093218;28;19931;-64
2023/08/21 13:23:56;;;;;;;;;;;24.10;52.50;;;;;;5089851;28;19949;-66
2023/08/21 13:26:22;;;;;;;;;;;24.20;52.30;;;;;;5089564;28;19931;-67
2023/08/21 13:28:50;;;;;;;;;;;24.10;52.10;;;;;;5096214;28;19924;-62
2023/08/21 13:31:17;;;;;;;;;;;24.20;52.10;;;;;;5106987;28;19935;-67
2023/08/21 13:33:46;;;;;;;;;;;24.20;52.90;;;;;;5109075;28;19928;-62
2023/08/21 13:36:13;;;;;;;;;;;24.20;51.50;;;;;;5108614;27;19932;-62
2023/08/21 13:38:40;;;;;;;;;;;24.30;51.20;;;;;;5092085;27;20338;-64
2023/08/21 13:41:08;;;;;;;;;;;24.30;51.20;;;;;;5092586;28;19928;-65
2023/08/21 13:43:35;;;;;;;;;;;24.30;50.70;;;;;;5105828;28;19920;-65
2023/08/21 13:46:03;;;;;;;;;;;24.30;51.30;;;;;;5107180;27;19924;-64
2023/08/21 13:48:30;;;;;;;;;;;24.30;51.40;;;;;;5086719;28;19932;-66
2023/08/21 13:50:57;;;;;;;;;;;24.40;51.30;;;;;;5092058;28;19924;-63
2023/08/21 13:53:23;;;;;;;;;;;24.40;51.50;;;;;;5092687;28;19924;-64
2023/08/21 13:55:50;;;;;;;;;;;24.40;51.00;;;;;;5093810;27;19924;-63
2023/08/21 13:58:18;;;;;;;;;;;24.50;50.90;;;;;;5089337;28;20001;-67
2023/08/21 14:00:45;;;;;;;;;;;24.50;51.00;;;;;;5116791;27;19967;-67
2023/08/21 14:03:12;;;;;;;;;;;24.50;50.50;;;;;;5100719;28;19924;-65
2023/08/21 14:05:39;;;;;;;;;;;24.60;50.80;;;;;;5091481;27;19928;-66
2023/08/21 14:08:06;;;;;;;;;;;24.60;51.10;;;;;;5093487;28;19924;-64
2023/08/21 14:10:32;;;;;;;;;;;24.60;51.60;;;;;;5097904;28;19958;-64
2023/08/21 14:12:59;;;;;;;;;;;24.60;51.40;;;;;;5089278;28;20741;-63
2023/08/21 14:15:27;;;;;;;;;;;24.60;51.40;;;;;;5091525;28;19924;-64